createdAt,value
2023-11-10T00:02:11.526Z,95737.53
2023-11-10T00:07:18.218Z,95731.25
2023-11-10T00:12:21.326Z,95717.56
2023-11-10T00:17:24.398Z,95706.75
2023-11-10T00:22:32.700Z,95711.69
2023-11-10T00:27:35.939Z,95696.25
2023-11-10T00:32:40.469Z,95696.25
2023-11-10T00:37:45.130Z,95698.09
2023-11-10T00:42:48.257Z,95679.38
2023-11-10T00:47:51.356Z,95676.03
2023-11-10T00:52:55.873Z,95680.09
2023-11-10T00:57:59.532Z,95669.47
2023-11-10T01:03:05.119Z,95687.63
2023-11-10T01:08:09.691Z,95683.94
2023-11-10T01:13:15.284Z,95676.53
2023-11-10T01:18:19.000Z,95668.69
2023-11-10T01:23:23.683Z,95665.03
2023-11-10T01:28:27.166Z,95672.09
2023-11-10T01:33:30.381Z,95684.88
2023-11-10T01:38:36.663Z,95675.56
2023-11-10T01:43:39.755Z,95676.22
2023-11-10T01:48:42.990Z,95674.84
2023-11-10T01:53:47.572Z,95670.00
2023-11-10T01:58:50.648Z,95684.53
2023-11-10T02:03:54.335Z,95689.06
2023-11-10T02:08:58.885Z,95689.25
2023-11-10T02:14:05.022Z,95667.66
2023-11-10T02:19:16.250Z,95648.59
2023-11-10T02:24:22.844Z,95650.91
2023-11-10T02:29:27.427Z,95630.16
2023-11-10T02:34:30.614Z,95614.63
2023-11-10T02:39:33.721Z,95607.59
2023-11-10T02:44:38.713Z,95599.69
2023-11-10T02:49:42.478Z,95594.81
2023-11-10T02:54:45.693Z,95590.75
2023-11-10T02:59:50.351Z,95587.94
2023-11-10T03:04:53.521Z,95587.38
2023-11-10T03:09:56.616Z,95573.19
2023-11-10T03:15:01.093Z,95572.91
2023-11-10T03:20:04.330Z,95585.41
2023-11-10T03:25:08.182Z,95612.72
2023-11-10T03:30:13.636Z,95614.59
2023-11-10T03:35:16.806Z,95602.16
2023-11-10T03:40:21.643Z,95617.47
2023-11-10T03:45:26.220Z,95633.25
2023-11-10T03:50:29.384Z,95621.09
2023-11-10T03:55:33.121Z,95620.22
2023-11-10T04:00:46.093Z,95619.16
2023-11-10T04:05:52.448Z,95618.66
2023-11-10T04:10:57.252Z,95608.81
2023-11-10T04:16:01.921Z,95612.81
2023-11-10T04:21:05.101Z,95608.28
2023-11-10T04:26:08.712Z,95591.97
2023-11-10T04:31:15.163Z,95603.59
2023-11-10T04:36:19.637Z,95595.38
2023-11-10T04:41:23.623Z,95601.94
2023-11-10T04:46:28.164Z,95589.94
2023-11-10T04:51:32.522Z,95588.44
2023-11-10T04:56:45.136Z,95585.97
2023-11-10T05:01:50.469Z,95604.06
2023-11-10T05:06:54.088Z,95611.81
2023-11-10T05:11:58.464Z,95612.28
2023-11-10T05:17:02.961Z,95600.97
2023-11-10T05:22:09.134Z,95599.69
2023-11-10T05:27:13.688Z,95594.47
2023-11-10T05:32:18.174Z,95589.03
2023-11-10T05:37:22.177Z,95599.44
2023-11-10T05:42:25.451Z,95607.53
2023-11-10T05:47:29.994Z,95609.75
2023-11-10T05:52:33.125Z,95619.06
2023-11-10T05:57:37.416Z,95613.47
2023-11-10T06:02:43.462Z,95602.09
2023-11-10T06:07:48.785Z,95609.25
2023-11-10T06:12:52.747Z,95606.53
2023-11-10T06:17:57.857Z,95612.25
2023-11-10T06:23:01.076Z,95618.03
2023-11-10T06:28:04.365Z,95638.63
2023-11-10T06:33:08.889Z,95643.47
2023-11-10T06:38:12.476Z,95640.91
2023-11-10T06:43:15.553Z,95633.16
2023-11-10T06:48:20.181Z,95628.88
2023-11-10T06:53:23.293Z,95654.47
2023-11-10T06:58:26.405Z,95662.66
2023-11-10T07:03:31.928Z,95673.09
2023-11-10T07:08:36.054Z,95675.09
2023-11-10T07:13:39.118Z,95669.09
2023-11-10T07:18:43.656Z,95675.47
2023-11-10T07:23:46.826Z,95685.06
2023-11-10T07:28:50.134Z,95691.03
2023-11-10T07:33:54.790Z,95687.31
2023-11-10T07:38:57.890Z,95693.09
2023-11-10T07:44:01.021Z,95701.41
2023-11-10T07:49:06.081Z,95703.78
2023-11-10T07:54:09.247Z,95703.19
2023-11-10T07:59:12.347Z,95701.81
2023-11-10T08:04:17.128Z,95707.59
2023-11-10T08:09:22.274Z,95707.63
2023-11-10T08:14:26.959Z,95720.25
2023-11-10T08:19:31.429Z,95728.59
2023-11-10T08:24:34.780Z,95723.06
2023-11-10T08:29:37.875Z,95710.47
2023-11-10T08:34:42.428Z,95715.44
2023-11-10T08:39:45.751Z,95707.53
2023-11-10T08:44:49.840Z,95712.41
2023-11-10T08:49:57.316Z,95726.19
2023-11-10T08:55:01.100Z,95732.63
2023-11-10T09:00:04.740Z,95726.91
2023-11-10T09:05:11.192Z,95727.56
2023-11-10T09:10:14.340Z,95724.97
2023-11-10T09:15:17.610Z,95721.28
2023-11-10T09:20:22.441Z,95716.81
2023-11-10T09:25:25.798Z,95709.09
2023-11-10T09:30:29.071Z,95724.28
2023-11-10T09:35:35.039Z,95722.72
2023-11-10T09:40:38.318Z,95715.13
2023-11-10T09:45:44.482Z,95722.81
2023-11-10T09:50:51.424Z,95715.50
2023-11-10T09:55:56.274Z,95721.75
2023-11-10T10:00:59.803Z,95712.19
2023-11-10T10:06:04.555Z,95683.00
2023-11-10T10:11:08.031Z,95712.56
2023-11-10T10:16:12.328Z,95718.00
2023-11-10T10:21:17.114Z,95711.13
2023-11-10T10:26:20.413Z,95714.22
2023-11-10T10:31:23.594Z,95722.53
2023-11-10T10:36:28.308Z,95717.25
2023-11-10T10:41:33.282Z,95717.72
2023-11-10T10:46:37.687Z,95723.44
2023-11-10T10:51:42.358Z,95721.34
2023-11-10T10:56:46.211Z,95720.91
2023-11-10T11:01:50.975Z,95711.34
2023-11-10T11:07:24.815Z,95712.47
2023-11-10T11:12:52.106Z,95710.94
2023-11-10T11:18:06.747Z,95724.25
2023-11-10T11:23:14.957Z,95716.72
2023-11-10T11:28:27.073Z,95722.88
2023-11-10T11:33:30.244Z,95713.44
2023-11-10T11:38:36.920Z,95703.91
2023-11-10T11:43:50.469Z,95699.84
2023-11-10T11:48:53.714Z,95696.03
2023-11-10T11:53:58.161Z,95692.56
2023-11-10T11:59:01.352Z,95692.25
2023-11-10T12:04:04.954Z,95688.47
2023-11-10T12:09:09.523Z,95700.00
2023-11-10T12:14:13.518Z,95703.97
2023-11-10T12:19:19.569Z,95685.81
2023-11-10T12:24:27.657Z,95685.03
2023-11-10T12:29:31.811Z,95675.81
2023-11-10T12:34:38.239Z,95681.06
2023-11-10T12:39:44.721Z,95678.31
2023-11-10T12:44:56.445Z,95675.88
2023-11-10T12:50:00.660Z,95678.22
2023-11-10T12:55:05.636Z,95675.97
2023-11-10T13:00:10.936Z,95672.06
2023-11-10T13:05:15.587Z,95670.97
2023-11-10T13:10:20.257Z,95669.88
2023-11-10T13:15:23.417Z,95677.94
2023-11-10T13:20:29.455Z,95670.97
2023-11-10T13:25:34.705Z,95655.41
2023-11-10T13:30:37.845Z,95651.59
2023-11-10T13:35:41.280Z,95660.13
2023-11-10T13:40:46.005Z,95681.44
2023-11-10T13:45:49.195Z,95686.00
2023-11-10T13:50:52.473Z,95669.50
2023-11-10T13:55:56.986Z,95669.44
2023-11-10T14:01:00.113Z,95668.03
2023-11-10T14:06:09.283Z,95668.91
2023-11-10T14:11:14.296Z,95672.00
2023-11-10T14:16:17.527Z,95670.44
2023-11-10T14:21:23.192Z,95687.75
2023-11-10T14:26:27.841Z,95688.22
2023-11-10T14:31:31.396Z,95684.97
2023-11-10T14:36:34.754Z,95681.16
2023-11-10T14:41:39.393Z,95673.59
2023-11-10T14:46:42.772Z,95676.53
2023-11-10T14:51:53.669Z,95689.13
2023-11-10T14:56:58.139Z,95682.91
2023-11-10T15:02:02.976Z,95682.56
2023-11-10T15:07:06.462Z,95663.03
2023-11-10T15:12:12.022Z,95671.13
2023-11-10T15:17:15.096Z,95675.16
2023-11-10T15:22:18.183Z,95667.44
2023-11-10T15:27:23.124Z,95670.56
2023-11-10T15:32:26.250Z,95667.13
2023-11-10T15:37:32.421Z,95670.34
2023-11-10T15:42:37.252Z,95668.56
2023-11-10T15:47:40.461Z,95670.22
2023-11-10T15:52:43.610Z,95660.59
2023-11-10T15:57:49.874Z,95667.13
2023-11-10T16:02:53.768Z,95672.28
2023-11-10T16:07:57.064Z,95685.50
2023-11-10T16:13:01.820Z,95689.38
2023-11-10T16:18:05.067Z,95684.34
2023-11-10T16:23:08.735Z,95690.16
2023-11-10T16:28:15.073Z,95685.44
2023-11-10T16:33:18.332Z,95687.69
2023-11-10T16:38:21.617Z,95699.13
2023-11-10T16:43:26.152Z,95698.31
2023-11-10T16:48:29.241Z,95693.31
2023-11-10T16:53:32.288Z,95700.94
2023-11-10T16:58:36.886Z,95702.13
2023-11-10T17:03:40.257Z,95694.19
2023-11-10T17:08:44.469Z,95698.50
2023-11-10T17:13:48.982Z,95707.53
2023-11-10T17:18:52.387Z,95687.56
2023-11-10T17:23:55.631Z,95694.88
2023-11-10T17:29:01.450Z,95690.16
2023-11-10T17:34:06.563Z,95681.97
2023-11-10T17:39:10.376Z,95677.47
2023-11-10T17:44:15.355Z,95690.50
2023-11-10T17:49:18.448Z,95716.03
2023-11-10T17:54:21.606Z,95715.38
2023-11-10T17:59:26.649Z,95714.75
2023-11-10T18:04:29.837Z,95713.75
2023-11-10T18:09:33.113Z,95712.13
2023-11-10T18:14:38.637Z,95716.16
2023-11-10T18:19:42.937Z,95731.88
2023-11-10T18:24:47.463Z,95726.41
2023-11-10T18:29:52.520Z,95717.22
2023-11-10T18:34:55.732Z,95722.00
2023-11-10T18:39:59.087Z,95719.81
2023-11-10T18:45:04.326Z,95721.25
2023-11-10T18:50:09.445Z,95720.28
2023-11-10T18:55:13.056Z,95726.13
2023-11-10T19:00:18.591Z,95722.50
2023-11-10T19:05:23.794Z,95731.91
2023-11-10T19:10:28.134Z,95734.75
2023-11-10T19:15:32.931Z,95739.81
2023-11-10T19:20:37.032Z,95744.88
2023-11-10T19:25:40.592Z,95736.44
2023-11-10T19:30:45.233Z,95723.19
2023-11-10T19:35:49.401Z,95728.41
2023-11-10T19:40:52.850Z,95727.63
2023-11-10T19:45:57.361Z,95724.00
2023-11-10T19:51:01.080Z,95727.19
2023-11-10T19:56:04.641Z,95737.22
2023-11-10T20:01:09.362Z,95722.56
2023-11-10T20:06:12.513Z,95739.81
2023-11-10T20:11:19.896Z,95737.84
2023-11-10T20:16:25.398Z,95723.75
2023-11-10T20:21:28.774Z,95720.31
2023-11-10T20:26:31.918Z,95709.69
2023-11-10T20:31:36.510Z,95731.75
2023-11-10T20:36:39.713Z,95729.72
2023-11-10T20:41:43.371Z,95731.34
2023-11-10T20:46:48.178Z,95712.88
2023-11-10T20:51:51.266Z,95708.47
2023-11-10T20:56:54.497Z,95731.94
2023-11-10T21:01:59.012Z,95723.31
2023-11-10T21:07:02.142Z,95722.56
2023-11-10T21:12:06.778Z,95727.97
2023-11-10T21:17:11.433Z,95735.00
2023-11-10T21:22:14.551Z,95753.91
2023-11-10T21:27:17.662Z,95766.34
2023-11-10T21:32:22.523Z,95746.06
2023-11-10T21:37:25.694Z,95779.41
2023-11-10T21:42:28.841Z,95784.00
2023-11-10T21:47:34.498Z,95775.00
2023-11-10T21:52:37.627Z,95790.44
2023-11-10T21:57:41.681Z,95788.63
2023-11-10T22:02:46.297Z,95761.72
2023-11-10T22:07:49.519Z,95774.16
2023-11-10T22:12:53.785Z,95770.78
2023-11-10T22:17:58.263Z,95762.88
2023-11-10T22:23:01.792Z,95748.69
2023-11-10T22:28:05.590Z,95762.75
2023-11-10T22:33:10.183Z,95748.84
2023-11-10T22:38:13.294Z,95750.47
2023-11-10T22:43:16.803Z,95762.75
2023-11-10T22:48:21.375Z,95765.75
2023-11-10T22:53:24.571Z,95800.84
2023-11-10T22:58:27.626Z,95775.13
2023-11-10T23:03:32.316Z,95775.16
2023-11-10T23:08:35.451Z,95781.19
2023-11-10T23:13:42.199Z,95797.44
2023-11-10T23:18:47.214Z,95796.03
2023-11-10T23:23:50.657Z,95790.63
2023-11-10T23:28:53.735Z,95821.53
2023-11-10T23:33:58.237Z,95796.81
2023-11-10T23:39:01.460Z,95790.06
2023-11-10T23:44:04.723Z,95806.03
2023-11-10T23:49:09.827Z,95804.81
2023-11-10T23:54:13.122Z,95815.25
2023-11-10T23:59:16.426Z,95789.38
